Latest Weather Observations for Fawkner Beacon

IDV60801

Issued at 4:31 pm EST Monday 3 August 2015 (issued every 30 minutes, with the page automatically refreshed every 10 minutes)

About weather observations | Map of weather stations | Latest weather observations for VIC | Other Formats
Station Details ID: 086376 Name: FAWKNER BEACON Lat: -37.91 Lon: 144.93 Height: 17.0 m
Data from the previous 72 hours. | See also: Recent months for locations in Victoria
Date/Time
EST
Temp
°C
App
Temp
°C
Dew
Point
Rel
Hum
%
Delta-T
°C
Wind Press
QNH
hPa
Press
MSL
hPa
Rain
since 9 am
mm
Dir
 
Spd
km/h
Gust
km/h
Spd
kts
Gust
kts
03/04:30pm - - - - - SW 22 26 12 14 - - -
03/04:00pm - - - - - SSW 35 43 19 23 - - -
03/03:30pm - - - - - S 26 32 14 17 - - -
03/03:00pm - - - - - S 30 41 16 22 - - -
03/02:30pm - - - - - SW 32 43 17 23 - - -
03/02:01pm - - - - - SSW 35 59 19 32 - - -
03/02:00pm - - - - - SSW 35 59 19 32 - - -
03/01:56pm - - - - - S 30 59 16 32 - - -
03/01:55pm - - - - - S 28 50 15 27 - - -
03/01:30pm - - - - - SW 28 32 15 17 - - -
03/01:00pm - - - - - SW 33 48 18 26 - - -
03/12:53pm - - - - - SW 41 48 22 26 - - -
03/12:30pm - - - - - SSW 37 44 20 24 - - -
03/12:00pm - - - - - SW 35 43 19 23 - - -
03/11:30am - - - - - SW 35 44 19 24 - - -
03/11:00am - - - - - SW 32 41 17 22 - - -
03/10:30am - - - - - SW 30 41 16 22 - - -
03/10:00am - - - - - WSW 32 39 17 21 - - -
03/09:30am - - - - - WSW 37 46 20 25 - - -
03/09:00am - - - - - WSW 35 44 19 24 - - -
03/08:30am - - - - - WSW 46 54 25 29 - - -
03/08:00am - - - - - WSW 39 46 21 25 - - -
03/07:30am - - - - - WSW 41 48 22 26 - - -
03/07:00am - - - - - WSW 43 50 23 27 - - -
03/06:30am - - - - - WSW 46 54 25 29 - - -
03/06:00am - - - - - WSW 46 57 25 31 - - -
03/05:30am - - - - - W 43 61 23 33 - - -
03/05:24am - - - - - W 39 61 21 33 - - -
03/05:00am - - - - - W 32 41 17 22 - - -
03/04:30am - - - - - W 44 65 24 35 - - -
03/04:23am - - - - - W 41 65 22 35 - - -
03/04:00am - - - - - W 39 50 21 27 - - -
03/03:32am - - - - - W 46 65 25 35 - - -
03/03:30am - - - - - W 48 65 26 35 - - -
03/03:01am - - - - - W 50 69 27 37 - - -
03/03:00am - - - - - W 48 61 26 33 - - -
03/02:38am - - - - - W 44 63 24 34 - - -
03/02:30am - - - - - WNW 43 52 23 28 - - -
03/02:00am - - - - - WNW 41 50 22 27 - - -
03/01:30am - - - - - WNW 43 52 23 28 - - -
03/01:00am - - - - - NW 44 52 24 28 - - -
03/12:30am - - - - - WNW 41 48 22 26 - - -
03/12:00am - - - - - WNW 43 52 23 28 - - -
 
Date/Time
EST
Temp
°C
App
Temp
°C
Dew
Point
Rel
Hum
%
Delta-T
°C
Wind Press
QNH
hPa
Press
MSL
hPa
Rain
since 9 am
mm
Dir
 
Spd
km/h
Gust
km/h
Spd
kts
Gust
kts
02/11:30pm - - - - - WNW 37 44 20 24 - - -
02/11:00pm - - - - - WNW 39 48 21 26 - - -
02/10:30pm - - - - - WNW 39 48 21 26 - - -
02/10:00pm - - - - - W 41 50 22 27 - - -
02/09:31pm - - - - - WNW 39 61 21 33 - - -
02/09:30pm - - - - - WNW 37 50 20 27 - - -
02/09:00pm - - - - - W 32 41 17 22 - - -
02/08:30pm - - - - - W 30 33 16 18 - - -
02/08:00pm - - - - - W 35 46 19 25 - - -
02/07:30pm - - - - - W 37 44 20 24 - - -
02/07:00pm - - - - - W 35 43 19 23 - - -
02/06:30pm - - - - - W 37 43 20 23 - - -
02/06:00pm - - - - - WSW 46 61 25 33 - - -
02/05:30pm - - - - - WSW 48 59 26 32 - - -
02/05:21pm - - - - - WSW 35 54 19 29 - - -
02/05:00pm - - - - - SW 41 50 22 27 - - -
02/04:49pm - - - - - W 39 57 21 31 - - -
02/04:30pm - - - - - WNW 35 63 19 34 - - -
02/04:00pm - - - - - WNW 33 43 18 23 - - -
02/03:36pm - - - - - WNW 39 57 21 31 - - -
02/03:30pm - - - - - WNW 46 57 25 31 - - -
02/03:00pm - - - - - WNW 41 50 22 27 - - -
02/02:30pm - - - - - WNW 39 50 21 27 - - -
02/02:00pm - - - - - WNW 43 54 23 29 - - -
02/01:30pm - - - - - WNW 41 46 22 25 - - -
02/01:00pm - - - - - WNW 43 50 23 27 - - -
02/12:30pm - - - - - WNW 41 50 22 27 - - -
02/12:00pm - - - - - WNW 41 50 22 27 - - -
02/11:30am - - - - - WNW 39 48 21 26 - - -
02/11:00am - - - - - WNW 41 50 22 27 - - -
02/10:30am - - - - - WNW 43 52 23 28 - - -
02/10:00am - - - - - NW 28 33 15 18 - - -
02/09:30am - - - - - NW 30 35 16 19 - - -
02/09:00am - - - - - NW 28 33 15 18 - - -
02/08:30am - - - - - NW 26 32 14 17 - - -
02/08:00am - - - - - NW 28 33 15 18 - - -
02/07:30am - - - - - NNW 26 30 14 16 - - -
02/07:00am - - - - - NW 24 30 13 16 - - -
02/06:30am - - - - - NW 26 33 14 18 - - -
02/06:00am - - - - - NW 26 30 14 16 - - -
02/05:30am - - - - - NW 24 32 13 17 - - -
02/05:00am - - - - - NW 22 28 12 15 - - -
02/04:30am - - - - - NW 22 26 12 14 - - -
02/04:00am - - - - - WNW 24 28 13 15 - - -
02/03:30am - - - - - NW 22 26 12 14 - - -
02/03:00am - - - - - NW 19 22 10 12 - - -
02/02:30am - - - - - NW 20 24 11 13 - - -
02/02:00am - - - - - NNW 20 24 11 13 - - -
02/01:30am - - - - - NW 17 22 9 12 - - -
02/01:00am - - - - - NW 15 22 8 12 - - -
02/12:30am - - - - - NW 15 17 8 9 - - -
02/12:00am - - - - - NW 19 22 10 12 - - -
 
Date/Time
EST
Temp
°C
App
Temp
°C
Dew
Point
Rel
Hum
%
Delta-T
°C
Wind Press
QNH
hPa
Press
MSL
hPa
Rain
since 9 am
mm
Dir
 
Spd
km/h
Gust
km/h
Spd
kts
Gust
kts
01/11:30pm - - - - - NW 15 20 8 11 - - -
01/11:00pm - - - - - WNW 20 24 11 13 - - -
01/10:30pm - - - - - WNW 19 22 10 12 - - -
01/10:00pm - - - - - WNW 19 22 10 12 - - -
01/09:30pm - - - - - WNW 17 24 9 13 - - -
01/09:00pm - - - - - WNW 13 17 7 9 - - -
01/08:30pm - - - - - WNW 11 13 6 7 - - -
01/08:00pm - - - - - WNW 11 13 6 7 - - -
01/07:30pm - - - - - WNW 13 15 7 8 - - -
01/07:00pm - - - - - WNW 15 20 8 11 - - -
01/06:30pm - - - - - WNW 15 17 8 9 - - -
01/06:00pm - - - - - W 9 11 5 6 - - -
01/05:30pm - - - - - W 9 11 5 6 - - -
01/05:00pm - - - - - WSW 9 11 5 6 - - -
01/04:30pm - - - - - WSW 11 13 6 7 - - -
01/04:00pm - - - - - WSW 15 17 8 9 - - -
01/03:30pm - - - - - WSW 11 15 6 8 - - -
01/03:00pm - - - - - WSW 11 15 6 8 - - -
01/02:30pm - - - - - SW 11 13 6 7 - - -
01/02:00pm - - - - - SW 9 13 5 7 - - -
01/01:30pm - - - - - SW 13 15 7 8 - - -
01/01:00pm - - - - - WSW 13 17 7 9 - - -
01/12:30pm - - - - - WSW 17 20 9 11 - - -
01/12:00pm - - - - - WSW 19 22 10 12 - - -
01/11:30am - - - - - WSW 20 24 11 13 - - -
01/11:00am - - - - - WSW 20 26 11 14 - - -
01/10:30am - - - - - WSW 26 32 14 17 - - -
01/10:00am - - - - - SW 19 24 10 13 - - -
01/09:30am - - - - - SW 28 33 15 18 - - -
01/09:00am - - - - - SSW 28 33 15 18 - - -
01/08:53am - - - - - SSW 35 50 19 27 - - -
01/08:49am - - - - - SW 39 50 21 27 - - -
01/08:30am - - - - - WSW 37 44 20 24 - - -
01/08:20am - - - - - W 30 46 16 25 - - -
01/08:00am - - - - - NW 24 30 13 16 - - -
01/07:30am - - - - - NNW 30 35 16 19 - - -
01/07:00am - - - - - NNW 41 48 22 26 - - -
01/06:30am - - - - - N 50 57 27 31 - - -
01/06:00am - - - - - NNW 46 61 25 33 - - -
01/05:30am - - - - - NNW 48 59 26 32 - - -
01/05:00am - - - - - NNW 54 67 29 36 - - -
01/04:30am - - - - - NNW 61 72 33 39 - - -
01/04:00am - - - - - NNW 57 78 31 42 - - -
01/03:57am - - - - - NNW 57 78 31 42 - - -
01/03:30am - - - - - NNW 63 76 34 41 - - -
01/03:00am - - - - - N 65 83 35 45 - - -
01/02:58am - - - - - N 63 83 34 45 - - -
01/02:30am - - - - - N 59 72 32 39 - - -
01/02:00am - - - - - N 52 65 28 35 - - -
01/01:30am - - - - - N 44 57 24 31 - - -
01/01:00am - - - - - NNW 44 54 24 29 - - -
01/12:30am - - - - - N 37 46 20 25 - - -
01/12:00am - - - - - N 35 46 19 25 - - -
 
Date/Time
EST
Temp
°C
App
Temp
°C
Dew
Point
Rel
Hum
%
Delta-T
°C
Wind Press
QNH
hPa
Press
MSL
hPa
Rain
since 9 am
mm
Dir
 
Spd
km/h
Gust
km/h
Spd
kts
Gust
kts
31/11:30pm - - - - - N 43 52 23 28 - - -
31/11:00pm - - - - - N 43 50 23 27 - - -
31/10:30pm - - - - - N 41 48 22 26 - - -
31/10:00pm - - - - - NNW 33 41 18 22 - - -
31/09:30pm - - - - - NNW 32 46 17 25 - - -
31/09:00pm - - - - - NW 32 39 17 21 - - -
31/08:30pm - - - - - NNW 39 46 21 25 - - -
31/08:00pm - - - - - NNW 43 54 23 29 - - -
31/07:30pm - - - - - N 37 46 20 25 - - -
31/07:00pm - - - - - NNW 37 46 20 25 - - -
31/06:30pm - - - - - NNW 33 43 18 23 - - -
31/06:00pm - - - - - NNW 32 39 17 21 - - -
31/05:30pm - - - - - NNW 37 44 20 24 - - -
31/05:00pm - - - - - NNW 35 44 19 24 - - -

Other Formats:

Comma delimited format used in spreadsheet applications
http://www.bom.gov.au/fwo/IDV60801/IDV60801.95872.axf

JavaScript Object Notation format (JSON) in row-major order
http://www.bom.gov.au/fwo/IDV60801/IDV60801.95872.json